sensor_id;sensor_type;location;lat;lon;timestamp;pressure;altitude;pressure_sealevel;temperature;humidity
42511;BME280;28141;51.120;17.114;2023-05-09T00:02:46;102769.75;;;18.38;37.34
42511;BME280;28141;51.120;17.114;2023-05-09T00:06:00;102773.22;;;18.31;37.26
42511;BME280;28141;51.120;17.114;2023-05-09T00:09:15;102768.04;;;18.28;37.29
42511;BME280;28141;51.120;17.114;2023-05-09T00:12:29;102768.04;;;18.28;37.31
42511;BME280;28141;51.120;17.114;2023-05-09T00:15:43;102761.67;;;18.37;37.17
42511;BME280;28141;51.120;17.114;2023-05-09T00:18:59;102756.46;;;18.34;37.30
42511;BME280;28141;51.120;17.114;2023-05-09T00:22:39;102760.83;;;18.27;37.23
42511;BME280;28141;51.120;17.114;2023-05-09T00:25:53;102763.13;;;18.21;37.37
42511;BME280;28141;51.120;17.114;2023-05-09T00:29:07;102754.47;;;18.26;37.37
42511;BME280;28141;51.120;17.114;2023-05-09T00:32:21;102749.30;;;18.13;37.40
42511;BME280;28141;51.120;17.114;2023-05-09T00:35:35;102745.55;;;18.14;37.08
42511;BME280;28141;51.120;17.114;2023-05-09T00:39:17;102747.30;;;18.06;37.35
42511;BME280;28141;51.120;17.114;2023-05-09T00:42:30;102742.82;;;18.05;37.35
42511;BME280;28141;51.120;17.114;2023-05-09T00:45:45;102739.80;;;17.88;37.36
42511;BME280;28141;51.120;17.114;2023-05-09T00:48:59;102739.67;;;17.80;37.69
42511;BME280;28141;51.120;17.114;2023-05-09T00:52:13;102731.71;;;17.87;37.62
42511;BME280;28141;51.120;17.114;2023-05-09T00:55:57;102738.06;;;17.87;37.64
42511;BME280;28141;51.120;17.114;2023-05-09T00:59:12;102734.46;;;17.87;37.60
42511;BME280;28141;51.120;17.114;2023-05-09T01:02:27;102729.98;;;17.86;37.44
42511;BME280;28141;51.120;17.114;2023-05-09T01:09:39;102737.50;;;17.65;37.80
42511;BME280;28141;51.120;17.114;2023-05-09T01:20:38;102725.37;;;17.58;38.00
42511;BME280;28141;51.120;17.114;2023-05-09T01:23:53;102714.13;;;17.61;37.96
42511;BME280;28141;51.120;17.114;2023-05-09T01:30:37;102711.51;;;17.59;38.01
42511;BME280;28141;51.120;17.114;2023-05-09T01:34:21;102707.20;;;17.66;37.86
42511;BME280;28141;51.120;17.114;2023-05-09T01:37:41;102702.30;;;17.70;37.69
42511;BME280;28141;51.120;17.114;2023-05-09T01:40:56;102710.39;;;17.71;37.67
42511;BME280;28141;51.120;17.114;2023-05-09T01:44:12;102710.09;;;17.65;37.74
42511;BME280;28141;51.120;17.114;2023-05-09T01:47:56;102711.37;;;17.61;37.73
42511;BME280;28141;51.120;17.114;2023-05-09T01:51:12;102707.18;;;17.57;37.60
42511;BME280;28141;51.120;17.114;2023-05-09T01:54:28;102698.24;;;17.55;37.85
42511;BME280;28141;51.120;17.114;2023-05-09T01:57:44;102700.98;;;17.55;37.80
42511;BME280;28141;51.120;17.114;2023-05-09T02:01:26;102696.66;;;17.52;37.83
42511;BME280;28141;51.120;17.114;2023-05-09T02:04:42;102706.04;;;17.49;37.78
42511;BME280;28141;51.120;17.114;2023-05-09T02:07:58;102709.79;;;17.48;37.96
42511;BME280;28141;51.120;17.114;2023-05-09T02:11:12;102703.45;;;17.38;37.95
42511;BME280;28141;51.120;17.114;2023-05-09T02:14:26;102703.45;;;17.38;37.92
42511;BME280;28141;51.120;17.114;2023-05-09T02:17:40;102699.98;;;17.36;38.02
42511;BME280;28141;51.120;17.114;2023-05-09T02:21:21;102710.92;;;17.27;38.10
42511;BME280;28141;51.120;17.114;2023-05-09T02:24:35;102707.59;;;17.23;38.16
42511;BME280;28141;51.120;17.114;2023-05-09T02:27:51;102696.23;;;17.28;38.16
42511;BME280;28141;51.120;17.114;2023-05-09T02:31:07;102691.30;;;17.22;38.17
42511;BME280;28141;51.120;17.114;2023-05-09T02:34:52;102694.77;;;17.24;38.16
42511;BME280;28141;51.120;17.114;2023-05-09T02:38:07;102698.65;;;17.21;38.11
42511;BME280;28141;51.120;17.114;2023-05-09T02:41:21;102690.16;;;17.24;38.15
42511;BME280;28141;51.120;17.114;2023-05-09T02:44:35;102692.88;;;17.14;38.15
42511;BME280;28141;51.120;17.114;2023-05-09T02:48:19;102693.62;;;17.17;38.25
42511;BME280;28141;51.120;17.114;2023-05-09T02:51:33;102688.13;;;17.07;38.11
42511;BME280;28141;51.120;17.114;2023-05-09T02:54:47;102689.87;;;17.08;38.44
42511;BME280;28141;51.120;17.114;2023-05-09T02:58:01;102687.26;;;16.97;38.43
42511;BME280;28141;51.120;17.114;2023-05-09T03:01:16;102671.83;;;16.96;38.40
42511;BME280;28141;51.120;17.114;2023-05-09T03:04:58;102682.05;;;16.94;38.53
42511;BME280;28141;51.120;17.114;2023-05-09T03:08:12;102680.77;;;16.98;38.55
42511;BME280;28141;51.120;17.114;2023-05-09T03:11:25;102672.68;;;16.87;38.43
42511;BME280;28141;51.120;17.114;2023-05-09T03:14:40;102676.44;;;16.95;38.63
42511;BME280;28141;51.120;17.114;2023-05-09T03:17:54;102672.38;;;16.90;38.52
42511;BME280;28141;51.120;17.114;2023-05-09T03:21:39;102682.03;;;16.84;38.58
42511;BME280;28141;51.120;17.114;2023-05-09T03:24:54;102669.95;;;16.87;38.67
42511;BME280;28141;51.120;17.114;2023-05-09T03:28:08;102670.64;;;16.89;38.50
42511;BME280;28141;51.120;17.114;2023-05-09T03:31:21;102668.23;;;16.95;38.51
42511;BME280;28141;51.120;17.114;2023-05-09T03:34:36;102658.29;;;17.04;38.70
42511;BME280;28141;51.120;17.114;2023-05-09T03:38:17;102665.49;;;16.95;38.44
42511;BME280;28141;51.120;17.114;2023-05-09T03:41:31;102665.77;;;17.02;38.41
42511;BME280;28141;51.120;17.114;2023-05-09T03:44:48;102668.52;;;17.02;38.21
42511;BME280;28141;51.120;17.114;2023-05-09T03:48:02;102662.20;;;17.30;38.22
42511;BME280;28141;51.120;17.114;2023-05-09T03:51:47;102665.82;;;17.40;38.12
42511;BME280;28141;51.120;17.114;2023-05-09T03:55:01;102667.37;;;17.33;38.09
42511;BME280;28141;51.120;17.114;2023-05-09T03:58:15;102664.37;;;17.17;38.15
42511;BME280;28141;51.120;17.114;2023-05-09T04:01:31;102665.10;;;17.29;38.13
42511;BME280;28141;51.120;17.114;2023-05-09T04:05:14;102672.30;;;17.30;38.20
42511;BME280;28141;51.120;17.114;2023-05-09T04:08:28;102666.52;;;17.23;38.24
42511;BME280;28141;51.120;17.114;2023-05-09T04:11:42;102666.23;;;17.65;37.98
42511;BME280;28141;51.120;17.114;2023-05-09T04:14:57;102670.38;;;17.88;37.89
42511;BME280;28141;51.120;17.114;2023-05-09T04:18:11;102668.80;;;17.95;37.59
42511;BME280;28141;51.120;17.114;2023-05-09T04:21:25;102670.16;;;18.18;37.40
42511;BME280;28141;51.120;17.114;2023-05-09T04:25:07;102677.37;;;18.19;37.26
42511;BME280;28141;51.120;17.114;2023-05-09T04:28:26;102671.30;;;18.26;37.07
42511;BME280;28141;51.120;17.114;2023-05-09T04:31:40;102670.40;;;18.35;37.14
42511;BME280;28141;51.120;17.114;2023-05-09T04:34:54;102667.31;;;18.47;37.14
42511;BME280;28141;51.120;17.114;2023-05-09T04:38:38;102670.59;;;18.51;36.81
42511;BME280;28141;51.120;17.114;2023-05-09T04:41:52;102677.75;;;18.71;36.46
42511;BME280;28141;51.120;17.114;2023-05-09T04:45:07;102670.94;;;18.75;36.60
42511;BME280;28141;51.120;17.114;2023-05-09T04:48:24;102673.48;;;18.86;36.43
42511;BME280;28141;51.120;17.114;2023-05-09T04:52:04;102678.11;;;19.04;36.32
42511;BME280;28141;51.120;17.114;2023-05-09T04:55:19;102667.73;;;19.43;36.18
42511;BME280;28141;51.120;17.114;2023-05-09T04:58:33;102665.13;;;19.41;35.99
42511;BME280;28141;51.120;17.114;2023-05-09T05:01:50;102663.33;;;19.67;35.55
42511;BME280;28141;51.120;17.114;2023-05-09T05:05:05;102655.40;;;19.64;35.69
42511;BME280;28141;51.120;17.114;2023-05-09T05:08:19;102656.57;;;19.62;35.54
42511;BME280;28141;51.120;17.114;2023-05-09T05:12:01;102661.91;;;19.63;35.64
42511;BME280;28141;51.120;17.114;2023-05-09T05:15:15;102661.40;;;19.86;35.53
42511;BME280;28141;51.120;17.114;2023-05-09T05:18:31;102664.91;;;19.96;35.45
42511;BME280;28141;51.120;17.114;2023-05-09T05:21:45;102665.11;;;20.02;35.37
42511;BME280;28141;51.120;17.114;2023-05-09T05:25:28;102664.95;;;20.04;35.52
42511;BME280;28141;51.120;17.114;2023-05-09T05:28:42;102658.19;;;20.24;35.52
42511;BME280;28141;51.120;17.114;2023-05-09T05:31:55;102646.01;;;20.53;35.29
42511;BME280;28141;51.120;17.114;2023-05-09T05:35:09;102655.47;;;20.58;35.06
42511;BME280;28141;51.120;17.114;2023-05-09T05:38:53;102662.94;;;20.74;35.02
42511;BME280;28141;51.120;17.114;2023-05-09T05:42:07;102650.05;;;20.74;35.24
42511;BME280;28141;51.120;17.114;2023-05-09T05:45:21;102649.96;;;21.17;34.55
42511;BME280;28141;51.120;17.114;2023-05-09T05:48:35;102649.66;;;21.36;34.29
42511;BME280;28141;51.120;17.114;2023-05-09T05:51:49;102648.63;;;21.29;34.41
42511;BME280;28141;51.120;17.114;2023-05-09T05:55:29;102655.86;;;21.95;34.06
42511;BME280;28141;51.120;17.114;2023-05-09T05:58:43;102637.56;;;22.10;33.49
42511;BME280;28141;51.120;17.114;2023-05-09T06:01:56;102631.68;;;21.97;33.13
42511;BME280;28141;51.120;17.114;2023-05-09T06:05:10;102625.96;;;22.23;33.21
42511;BME280;28141;51.120;17.114;2023-05-09T06:08:24;102626.83;;;22.23;33.22
42511;BME280;28141;51.120;17.114;2023-05-09T06:12:05;102627.66;;;22.79;33.29
42511;BME280;28141;51.120;17.114;2023-05-09T06:15:19;102631.47;;;22.70;33.03
42511;BME280;28141;51.120;17.114;2023-05-09T06:18:34;102622.63;;;23.05;32.94
42511;BME280;28141;51.120;17.114;2023-05-09T06:21:52;102623.83;;;23.34;32.98
42511;BME280;28141;51.120;17.114;2023-05-09T06:25:30;102616.81;;;23.69;32.72
42511;BME280;28141;51.120;17.114;2023-05-09T06:28:44;102605.59;;;23.99;32.75
42511;BME280;28141;51.120;17.114;2023-05-09T06:31:58;102611.03;;;24.37;33.09
42511;BME280;28141;51.120;17.114;2023-05-09T06:35:12;102618.05;;;24.69;32.70
42511;BME280;28141;51.120;17.114;2023-05-09T06:38:51;102609.68;;;24.62;32.47
42511;BME280;28141;51.120;17.114;2023-05-09T06:42:05;102624.89;;;24.88;32.63
42511;BME280;28141;51.120;17.114;2023-05-09T06:45:19;102602.45;;;25.19;31.90
42511;BME280;28141;51.120;17.114;2023-05-09T06:48:33;102606.08;;;25.40;32.17
42511;BME280;28141;51.120;17.114;2023-05-09T06:52:13;102597.20;;;25.73;31.69
42511;BME280;28141;51.120;17.114;2023-05-09T06:55:28;102592.58;;;25.87;31.53
42511;BME280;28141;51.120;17.114;2023-05-09T06:58:43;102591.78;;;25.93;31.34
42511;BME280;28141;51.120;17.114;2023-05-09T07:01:56;102585.29;;;26.13;31.26
42511;BME280;28141;51.120;17.114;2023-05-09T07:05:37;102574.63;;;26.17;30.76
42511;BME280;28141;51.120;17.114;2023-05-09T07:08:50;102591.82;;;26.27;30.94
42511;BME280;28141;51.120;17.114;2023-05-09T07:12:05;102582.91;;;26.45;30.74
42511;BME280;28141;51.120;17.114;2023-05-09T07:15:19;102582.13;;;26.64;30.41
42511;BME280;28141;51.120;17.114;2023-05-09T07:19:00;102587.73;;;26.77;30.11
42511;BME280;28141;51.120;17.114;2023-05-09T07:22:14;102596.94;;;26.78;29.59
42511;BME280;28141;51.120;17.114;2023-05-09T07:25:28;102584.83;;;26.99;30.12
42511;BME280;28141;51.120;17.114;2023-05-09T07:28:42;102569.37;;;26.89;29.72
42511;BME280;28141;51.120;17.114;2023-05-09T07:32:22;102577.34;;;26.99;29.66
42511;BME280;28141;51.120;17.114;2023-05-09T07:35:36;102555.10;;;27.19;29.76
42511;BME280;28141;51.120;17.114;2023-05-09T07:38:50;102547.61;;;27.26;30.15
42511;BME280;28141;51.120;17.114;2023-05-09T07:42:06;102535.40;;;27.27;29.74
42511;BME280;28141;51.120;17.114;2023-05-09T07:45:47;102547.20;;;27.36;29.63
42511;BME280;28141;51.120;17.114;2023-05-09T07:49:01;102531.34;;;27.49;29.74
42511;BME280;28141;51.120;17.114;2023-05-09T07:52:15;102508.23;;;27.42;29.26
42511;BME280;28141;51.120;17.114;2023-05-09T07:55:30;102528.99;;;27.53;29.82
42511;BME280;28141;51.120;17.114;2023-05-09T07:59:10;102515.08;;;27.59;29.20
42511;BME280;28141;51.120;17.114;2023-05-09T08:02:24;102521.27;;;27.75;28.80
42511;BME280;28141;51.120;17.114;2023-05-09T08:05:38;102509.91;;;27.70;28.92
42511;BME280;28141;51.120;17.114;2023-05-09T08:08:52;102507.74;;;27.85;27.91
42511;BME280;28141;51.120;17.114;2023-05-09T08:12:32;102519.53;;;27.87;28.45
42511;BME280;28141;51.120;17.114;2023-05-09T08:15:46;102512.24;;;27.86;28.76
42511;BME280;28141;51.120;17.114;2023-05-09T08:19:00;102505.36;;;27.95;28.99
42511;BME280;28141;51.120;17.114;2023-05-09T08:22:18;102503.06;;;27.79;28.08
42511;BME280;28141;51.120;17.114;2023-05-09T08:25:58;102500.67;;;27.89;28.45
42511;BME280;28141;51.120;17.114;2023-05-09T08:29:12;102489.54;;;27.89;28.85
42511;BME280;28141;51.120;17.114;2023-05-09T08:32:27;102487.13;;;27.99;28.61
42511;BME280;28141;51.120;17.114;2023-05-09T08:35:41;102480.41;;;28.13;28.24
42511;BME280;28141;51.120;17.114;2023-05-09T08:39:22;102481.91;;;28.16;28.42
42511;BME280;28141;51.120;17.114;2023-05-09T08:42:36;102478.04;;;28.23;28.89
42511;BME280;28141;51.120;17.114;2023-05-09T08:46:00;102472.88;;;28.33;29.04
42511;BME280;28141;51.120;17.114;2023-05-09T08:49:44;102462.55;;;28.34;28.49
42511;BME280;28141;51.120;17.114;2023-05-09T08:52:58;102462.54;;;28.41;28.36
42511;BME280;28141;51.120;17.114;2023-05-09T08:56:13;102455.23;;;28.40;28.16
42511;BME280;28141;51.120;17.114;2023-05-09T08:59:27;102448.87;;;28.32;27.76
42511;BME280;28141;51.120;17.114;2023-05-09T09:03:09;102452.77;;;28.56;28.38
42511;BME280;28141;51.120;17.114;2023-05-09T09:06:24;102449.87;;;28.76;28.61
42511;BME280;28141;51.120;17.114;2023-05-09T09:09:43;102439.11;;;28.80;28.57
42511;BME280;28141;51.120;17.114;2023-05-09T09:12:59;102442.47;;;28.88;28.22
42511;BME280;28141;51.120;17.114;2023-05-09T09:16:43;102441.65;;;28.88;28.15
42511;BME280;28141;51.120;17.114;2023-05-09T09:20:00;102432.12;;;28.95;28.10
42511;BME280;28141;51.120;17.114;2023-05-09T09:23:19;102428.60;;;29.07;28.28
42511;BME280;28141;51.120;17.114;2023-05-09T09:27:06;102438.05;;;29.05;28.03
42511;BME280;28141;51.120;17.114;2023-05-09T09:30:23;102423.17;;;29.12;27.83
42511;BME280;28141;51.120;17.114;2023-05-09T09:33:38;102415.72;;;29.05;27.86
42511;BME280;28141;51.120;17.114;2023-05-09T09:36:52;102416.14;;;29.09;27.88
42511;BME280;28141;51.120;17.114;2023-05-09T09:40:32;102420.37;;;29.12;27.84
42511;BME280;28141;51.120;17.114;2023-05-09T09:43:47;102423.80;;;29.14;28.65
42511;BME280;28141;51.120;17.114;2023-05-09T09:47:01;102420.55;;;29.17;27.85
42511;BME280;28141;51.120;17.114;2023-05-09T09:50:17;102420.05;;;29.01;27.67
42511;BME280;28141;51.120;17.114;2023-05-09T09:54:02;102418.99;;;29.21;27.72
42511;BME280;28141;51.120;17.114;2023-05-09T10:00:44;102395.21;;;29.18;27.50
42511;BME280;28141;51.120;17.114;2023-05-09T10:04:31;102403.05;;;29.28;27.78
42511;BME280;28141;51.120;17.114;2023-05-09T10:07:48;102382.77;;;29.39;27.49
42511;BME280;28141;51.120;17.114;2023-05-09T10:11:02;102379.12;;;29.57;27.51
42511;BME280;28141;51.120;17.114;2023-05-09T10:14:21;102383.79;;;29.63;28.04
42511;BME280;28141;51.120;17.114;2023-05-09T10:17:36;102378.87;;;29.76;27.63
42511;BME280;28141;51.120;17.114;2023-05-09T10:23:50;102370.24;;;29.96;27.19
42511;BME280;28141;51.120;17.114;2023-05-09T10:27:09;102363.58;;;29.97;27.03
42511;BME280;28141;51.120;17.114;2023-05-09T10:30:34;102371.02;;;30.03;27.84
42511;BME280;28141;51.120;17.114;2023-05-09T10:34:16;102373.03;;;29.96;26.88
42511;BME280;28141;51.120;17.114;2023-05-09T10:37:31;102363.62;;;30.09;26.63
42511;BME280;28141;51.120;17.114;2023-05-09T10:40:48;102345.30;;;30.13;26.88
42511;BME280;28141;51.120;17.114;2023-05-09T10:44:02;102343.86;;;30.22;27.44
42511;BME280;28141;51.120;17.114;2023-05-09T10:47:43;102335.12;;;30.30;26.50
42511;BME280;28141;51.120;17.114;2023-05-09T10:51:00;102335.39;;;30.40;26.58
42511;BME280;28141;51.120;17.114;2023-05-09T11:01:37;102326.41;;;30.38;25.88
42511;BME280;28141;51.120;17.114;2023-05-09T11:08:42;102320.29;;;30.30;26.28
42511;BME280;28141;51.120;17.114;2023-05-09T11:12:08;102300.41;;;30.49;27.52
42511;BME280;28141;51.120;17.114;2023-05-09T11:15:22;102305.43;;;30.59;26.40
42511;BME280;28141;51.120;17.114;2023-05-09T11:19:07;102294.35;;;30.76;26.86
42511;BME280;28141;51.120;17.114;2023-05-09T11:22:25;102282.55;;;30.85;26.96
42511;BME280;28141;51.120;17.114;2023-05-09T11:25:41;102283.87;;;30.95;26.87
42511;BME280;28141;51.120;17.114;2023-05-09T11:28:58;102281.57;;;31.03;26.46
42511;BME280;28141;51.120;17.114;2023-05-09T11:32:44;102275.61;;;31.11;26.62
42511;BME280;28141;51.120;17.114;2023-05-09T11:39:26;102260.00;;;31.15;26.76
42511;BME280;28141;51.120;17.114;2023-05-09T11:43:09;102259.73;;;31.29;26.56
42511;BME280;28141;51.120;17.114;2023-05-09T11:46:24;102246.95;;;31.33;26.26
42511;BME280;28141;51.120;17.114;2023-05-09T11:49:42;102243.98;;;31.39;26.24
42511;BME280;28141;51.120;17.114;2023-05-09T11:52:56;102237.05;;;31.42;25.19
42511;BME280;28141;51.120;17.114;2023-05-09T11:56:39;102236.89;;;31.48;26.25
42511;BME280;28141;51.120;17.114;2023-05-09T11:59:54;102224.07;;;31.64;26.60
42511;BME280;28141;51.120;17.114;2023-05-09T12:03:08;102234.26;;;31.70;26.40
42511;BME280;28141;51.120;17.114;2023-05-09T12:06:22;102219.27;;;31.76;25.98
42511;BME280;28141;51.120;17.114;2023-05-09T12:10:10;102227.50;;;31.83;26.28
42511;BME280;28141;51.120;17.114;2023-05-09T12:13:25;102204.41;;;31.92;26.35
42511;BME280;28141;51.120;17.114;2023-05-09T12:16:44;102201.20;;;32.01;26.25
42511;BME280;28141;51.120;17.114;2023-05-09T12:20:27;102203.78;;;32.19;25.90
42511;BME280;28141;51.120;17.114;2023-05-09T12:23:41;102200.69;;;32.37;25.91
42511;BME280;28141;51.120;17.114;2023-05-09T12:26:57;102193.63;;;32.51;25.98
42511;BME280;28141;51.120;17.114;2023-05-09T12:30:12;102181.34;;;32.57;25.98
42511;BME280;28141;51.120;17.114;2023-05-09T12:33:56;102179.91;;;32.72;25.44
42511;BME280;28141;51.120;17.114;2023-05-09T12:37:14;102180.05;;;32.82;25.57
42511;BME280;28141;51.120;17.114;2023-05-09T12:40:31;102175.36;;;32.87;25.37
42511;BME280;28141;51.120;17.114;2023-05-09T12:43:47;102169.02;;;32.97;24.96
42511;BME280;28141;51.120;17.114;2023-05-09T12:47:29;102164.68;;;33.11;25.29
42511;BME280;28141;51.120;17.114;2023-05-09T12:50:46;102162.34;;;33.25;24.98
42511;BME280;28141;51.120;17.114;2023-05-09T12:54:03;102136.84;;;33.31;25.05
42511;BME280;28141;51.120;17.114;2023-05-09T12:57:22;102131.66;;;33.45;24.76
42511;BME280;28141;51.120;17.114;2023-05-09T13:01:04;102145.80;;;33.55;24.96
42511;BME280;28141;51.120;17.114;2023-05-09T13:04:19;102133.27;;;33.68;24.80
42511;BME280;28141;51.120;17.114;2023-05-09T13:07:41;102127.27;;;33.86;24.97
42511;BME280;28141;51.120;17.114;2023-05-09T13:10:57;102117.77;;;33.92;25.01
42511;BME280;28141;51.120;17.114;2023-05-09T13:14:38;102125.77;;;34.11;24.47
42511;BME280;28141;51.120;17.114;2023-05-09T13:17:53;102122.76;;;34.22;24.52
42511;BME280;28141;51.120;17.114;2023-05-09T13:21:07;102106.28;;;34.36;24.56
42511;BME280;28141;51.120;17.114;2023-05-09T13:24:21;102092.26;;;34.46;23.96
42511;BME280;28141;51.120;17.114;2023-05-09T13:28:01;102101.61;;;34.62;24.00
42511;BME280;28141;51.120;17.114;2023-05-09T13:31:17;102086.17;;;34.74;23.87
42511;BME280;28141;51.120;17.114;2023-05-09T13:34:32;102093.02;;;34.94;23.58
42511;BME280;28141;51.120;17.114;2023-05-09T13:37:46;102086.88;;;35.07;23.32
42511;BME280;28141;51.120;17.114;2023-05-09T13:41:26;102082.13;;;35.23;23.42
42511;BME280;28141;51.120;17.114;2023-05-09T13:44:44;102079.06;;;35.39;23.03
42511;BME280;28141;51.120;17.114;2023-05-09T13:47:58;102073.14;;;35.51;22.94
42511;BME280;28141;51.120;17.114;2023-05-09T13:51:12;102053.14;;;35.68;22.84
42511;BME280;28141;51.120;17.114;2023-05-09T13:54:57;102057.05;;;35.92;22.88
42511;BME280;28141;51.120;17.114;2023-05-09T13:58:11;102045.75;;;36.02;22.90
42511;BME280;28141;51.120;17.114;2023-05-09T14:01:25;102055.03;;;36.13;22.63
42511;BME280;28141;51.120;17.114;2023-05-09T14:04:40;102047.41;;;36.24;22.52
42511;BME280;28141;51.120;17.114;2023-05-09T14:08:23;102039.47;;;36.36;22.24
42511;BME280;28141;51.120;17.114;2023-05-09T14:11:37;102044.50;;;36.49;22.20
42511;BME280;28141;51.120;17.114;2023-05-09T14:14:51;102028.64;;;36.58;21.98
42511;BME280;28141;51.120;17.114;2023-05-09T14:18:05;102024.07;;;36.67;21.91
42511;BME280;28141;51.120;17.114;2023-05-09T14:21:44;102029.16;;;36.75;21.65
42511;BME280;28141;51.120;17.114;2023-05-09T14:25:01;102022.60;;;36.85;20.93
42511;BME280;28141;51.120;17.114;2023-05-09T14:28:15;102014.91;;;36.96;21.18
42511;BME280;28141;51.120;17.114;2023-05-09T14:31:29;102010.88;;;37.07;21.62
42511;BME280;28141;51.120;17.114;2023-05-09T14:35:08;102003.98;;;37.23;21.24
42511;BME280;28141;51.120;17.114;2023-05-09T14:38:22;101988.03;;;37.37;20.89
42511;BME280;28141;51.120;17.114;2023-05-09T14:41:36;101984.91;;;37.39;20.97
42511;BME280;28141;51.120;17.114;2023-05-09T14:44:50;101991.79;;;37.56;21.08
42511;BME280;28141;51.120;17.114;2023-05-09T14:48:35;101993.67;;;37.71;20.75
42511;BME280;28141;51.120;17.114;2023-05-09T14:51:49;101984.48;;;37.84;21.19
42511;BME280;28141;51.120;17.114;2023-05-09T14:55:04;101982.07;;;37.96;20.45
42511;BME280;28141;51.120;17.114;2023-05-09T14:58:21;101978.17;;;38.16;20.42
42511;BME280;28141;51.120;17.114;2023-05-09T15:02:00;101987.08;;;38.28;20.21
42511;BME280;28141;51.120;17.114;2023-05-09T15:05:14;101969.95;;;38.39;20.07
42511;BME280;28141;51.120;17.114;2023-05-09T15:08:29;101970.95;;;38.48;20.09
42511;BME280;28141;51.120;17.114;2023-05-09T15:11:43;101967.40;;;38.61;19.87
42511;BME280;28141;51.120;17.114;2023-05-09T15:15:23;101968.54;;;38.79;19.77
42511;BME280;28141;51.120;17.114;2023-05-09T15:18:38;101967.98;;;38.95;19.56
42511;BME280;28141;51.120;17.114;2023-05-09T15:21:58;101957.03;;;39.08;19.62
42511;BME280;28141;51.120;17.114;2023-05-09T15:25:13;101956.78;;;39.23;19.31
42511;BME280;28141;51.120;17.114;2023-05-09T15:28:52;101956.44;;;39.43;19.26
42511;BME280;28141;51.120;17.114;2023-05-09T15:32:06;101946.16;;;39.61;19.25
42511;BME280;28141;51.120;17.114;2023-05-09T15:35:20;101955.11;;;39.82;18.97
42511;BME280;28141;51.120;17.114;2023-05-09T15:38:34;101943.16;;;39.98;19.08
42511;BME280;28141;51.120;17.114;2023-05-09T15:42:17;101940.20;;;40.17;18.68
42511;BME280;28141;51.120;17.114;2023-05-09T15:45:31;101933.56;;;40.35;18.25
42511;BME280;28141;51.120;17.114;2023-05-09T15:48:45;101938.37;;;40.48;18.57
42511;BME280;28141;51.120;17.114;2023-05-09T15:52:03;101934.66;;;40.62;18.48
42511;BME280;28141;51.120;17.114;2023-05-09T15:55:17;101930.45;;;40.73;18.06
42511;BME280;28141;51.120;17.114;2023-05-09T15:59:01;101932.50;;;40.81;18.18
42511;BME280;28141;51.120;17.114;2023-05-09T16:02:15;101917.40;;;40.94;18.04
42511;BME280;28141;51.120;17.114;2023-05-09T16:05:29;101917.28;;;40.99;18.05
42511;BME280;28141;51.120;17.114;2023-05-09T16:08:44;101912.29;;;41.05;18.29
42511;BME280;28141;51.120;17.114;2023-05-09T16:11:59;101888.91;;;41.08;18.14
42511;BME280;28141;51.120;17.114;2023-05-09T16:15:43;101900.86;;;41.18;17.97
42511;BME280;28141;51.120;17.114;2023-05-09T16:19:00;101896.19;;;41.23;17.88
42511;BME280;28141;51.120;17.114;2023-05-09T16:22:15;101889.22;;;41.29;17.93
42511;BME280;28141;51.120;17.114;2023-05-09T16:25:29;101884.37;;;41.29;17.87
42511;BME280;28141;51.120;17.114;2023-05-09T16:29:15;101883.53;;;41.29;17.82
42511;BME280;28141;51.120;17.114;2023-05-09T16:32:29;101869.30;;;41.29;17.82
42511;BME280;28141;51.120;17.114;2023-05-09T16:35:43;101865.82;;;41.32;17.94
42511;BME280;28141;51.120;17.114;2023-05-09T16:38:57;101857.77;;;41.34;17.73
42511;BME280;28141;51.120;17.114;2023-05-09T16:42:12;101868.15;;;41.30;17.67
42511;BME280;28141;51.120;17.114;2023-05-09T16:45:55;101863.94;;;41.27;17.78
42511;BME280;28141;51.120;17.114;2023-05-09T16:49:09;101855.54;;;41.22;17.79
42511;BME280;28141;51.120;17.114;2023-05-09T16:52:24;101857.21;;;41.23;17.99
42511;BME280;28141;51.120;17.114;2023-05-09T16:55:38;101850.01;;;41.17;17.75
42511;BME280;28141;51.120;17.114;2023-05-09T16:58:52;101865.91;;;41.18;17.84
42511;BME280;28141;51.120;17.114;2023-05-09T17:02:35;101857.10;;;41.06;17.75
42511;BME280;28141;51.120;17.114;2023-05-09T17:05:49;101851.06;;;40.99;17.76
42511;BME280;28141;51.120;17.114;2023-05-09T17:09:03;101842.45;;;40.90;18.09
42511;BME280;28141;51.120;17.114;2023-05-09T17:12:18;101835.88;;;40.81;17.75
42511;BME280;28141;51.120;17.114;2023-05-09T17:15:32;101828.79;;;40.70;17.78
42511;BME280;28141;51.120;17.114;2023-05-09T17:19:15;101832.39;;;40.62;18.00
42511;BME280;28141;51.120;17.114;2023-05-09T17:22:30;101827.66;;;40.57;18.08
42511;BME280;28141;51.120;17.114;2023-05-09T17:25:45;101832.77;;;40.46;18.10
42511;BME280;28141;51.120;17.114;2023-05-09T17:28:59;101822.33;;;40.33;18.03
42511;BME280;28141;51.120;17.114;2023-05-09T17:32:13;101823.17;;;40.20;18.21
42511;BME280;28141;51.120;17.114;2023-05-09T17:35:58;101830.88;;;40.06;18.12
42511;BME280;28141;51.120;17.114;2023-05-09T17:39:12;101830.73;;;39.89;17.98
42511;BME280;28141;51.120;17.114;2023-05-09T17:42:26;101832.74;;;39.47;18.46
42511;BME280;28141;51.120;17.114;2023-05-09T17:45:40;101821.22;;;39.11;18.67
42511;BME280;28141;51.120;17.114;2023-05-09T17:48:55;101830.46;;;38.84;18.85
42511;BME280;28141;51.120;17.114;2023-05-09T17:52:35;101836.49;;;38.64;18.92
42511;BME280;28141;51.120;17.114;2023-05-09T17:55:49;101827.26;;;38.40;19.00